sensor_id;sensor_type;location;lat;lon;timestamp;pressure;altitude;pressure_sealevel;temperature;humidity
55315;BME280;41619;42.816;23.226;2022-09-25T00:00:21;95877.47;;;5.92;66.27
55315;BME280;41619;42.816;23.226;2022-09-25T00:03:52;95873.78;;;5.88;66.17
55315;BME280;41619;42.816;23.226;2022-09-25T00:07:26;95872.38;;;5.82;66.29
55315;BME280;41619;42.816;23.226;2022-09-25T00:10:45;95869.03;;;5.76;66.08
55315;BME280;41619;42.816;23.226;2022-09-25T00:14:16;95878.94;;;5.72;66.45
55315;BME280;41619;42.816;23.226;2022-09-25T00:17:45;95870.03;;;5.63;65.95
55315;BME280;41619;42.816;23.226;2022-09-25T00:21:20;95875.47;;;5.54;66.48
55315;BME280;41619;42.816;23.226;2022-09-25T00:24:53;95862.72;;;5.46;66.82
55315;BME280;41619;42.816;23.226;2022-09-25T00:28:22;95860.50;;;5.39;66.69
55315;BME280;41619;42.816;23.226;2022-09-25T00:31:56;95862.72;;;5.37;66.78
55315;BME280;41619;42.816;23.226;2022-09-25T00:35:43;95856.34;;;5.33;66.82
55315;BME280;41619;42.816;23.226;2022-09-25T00:39:17;95854.75;;;5.32;66.79
55315;BME280;41619;42.816;23.226;2022-09-25T00:42:50;95860.50;;;5.31;66.60
55315;BME280;41619;42.816;23.226;2022-09-25T00:46:21;95853.81;;;5.28;66.79
55315;BME280;41619;42.816;23.226;2022-09-25T00:49:28;95858.94;;;5.21;66.72
55315;BME280;41619;42.816;23.226;2022-09-25T00:52:58;95861.47;;;5.17;66.86
55315;BME280;41619;42.816;23.226;2022-09-25T00:56:17;95854.63;;;5.11;67.21
55315;BME280;41619;42.816;23.226;2022-09-25T00:59:46;95840.13;;;5.07;67.73
55315;BME280;41619;42.816;23.226;2022-09-25T01:03:15;95839.16;;;5.03;67.44
55315;BME280;41619;42.816;23.226;2022-09-25T01:06:42;95837.72;;;4.97;67.63
55315;BME280;41619;42.816;23.226;2022-09-25T01:09:51;95848.88;;;4.96;67.80
55315;BME280;41619;42.816;23.226;2022-09-25T01:13:01;95842.50;;;4.92;67.92
55315;BME280;41619;42.816;23.226;2022-09-25T01:17:28;95846.19;;;4.87;68.03
55315;BME280;41619;42.816;23.226;2022-09-25T01:41:34;95849.84;;;4.65;68.10
55315;BME280;41619;42.816;23.226;2022-09-25T01:45:18;95839.28;;;4.64;68.20
55315;BME280;41619;42.816;23.226;2022-09-25T01:48:52;95842.47;;;4.57;68.44
55315;BME280;41619;42.816;23.226;2022-09-25T01:52:40;95840.09;;;4.55;68.52
55315;BME280;41619;42.816;23.226;2022-09-25T01:56:13;95839.94;;;4.52;68.48
55315;BME280;41619;42.816;23.226;2022-09-25T01:59:58;95856.19;;;4.52;68.75
55315;BME280;41619;42.816;23.226;2022-09-25T02:03:45;95853.16;;;4.53;68.55
55315;BME280;41619;42.816;23.226;2022-09-25T02:07:09;95853.50;;;4.52;68.19
55315;BME280;41619;42.816;23.226;2022-09-25T02:10:39;95849.50;;;4.49;68.63
55315;BME280;41619;42.816;23.226;2022-09-25T02:14:12;95851.53;;;4.44;68.38
55315;BME280;41619;42.816;23.226;2022-09-25T02:21:12;95853.91;;;4.28;68.69
55315;BME280;41619;42.816;23.226;2022-09-25T02:28:25;95851.97;;;4.20;68.90
55315;BME280;41619;42.816;23.226;2022-09-25T02:32:30;95848.94;;;4.21;69.05
55315;BME280;41619;42.816;23.226;2022-09-25T02:36:03;95859.00;;;4.21;69.03
55315;BME280;41619;42.816;23.226;2022-09-25T02:39:33;95859.78;;;4.21;69.18
55315;BME280;41619;42.816;23.226;2022-09-25T02:43:20;95858.34;;;4.24;69.21
55315;BME280;41619;42.816;23.226;2022-09-25T02:57:57;95838.94;;;4.39;68.96
55315;BME280;41619;42.816;23.226;2022-09-25T03:01:25;95840.22;;;4.42;69.05
55315;BME280;41619;42.816;23.226;2022-09-25T03:04:54;95839.91;;;4.43;69.07
55315;BME280;41619;42.816;23.226;2022-09-25T03:11:52;95840.22;;;4.42;69.22
55315;BME280;41619;42.816;23.226;2022-09-25T03:15:45;95836.06;;;4.44;69.28
55315;BME280;41619;42.816;23.226;2022-09-25T03:19:06;95834.66;;;4.47;69.41
55315;BME280;41619;42.816;23.226;2022-09-25T03:22:40;95831.66;;;4.48;69.21
55315;BME280;41619;42.816;23.226;2022-09-25T03:26:12;95834.34;;;4.48;69.49
55315;BME280;41619;42.816;23.226;2022-09-25T03:29:48;95847.09;;;4.48;69.44
55315;BME280;41619;42.816;23.226;2022-09-25T03:33:22;95846.31;;;4.47;69.61
55315;BME280;41619;42.816;23.226;2022-09-25T03:37:04;95840.69;;;4.44;69.77
55315;BME280;41619;42.816;23.226;2022-09-25T03:40:33;95845.47;;;4.38;69.61
55315;BME280;41619;42.816;23.226;2022-09-25T03:44:01;95844.03;;;4.32;69.91
55315;BME280;41619;42.816;23.226;2022-09-25T03:51:22;95851.00;;;4.16;70.25
55315;BME280;41619;42.816;23.226;2022-09-25T03:54:46;95861.47;;;4.09;69.74
55315;BME280;41619;42.816;23.226;2022-09-25T03:58:28;95868.16;;;4.03;70.14
55315;BME280;41619;42.816;23.226;2022-09-25T04:01:57;95868.63;;;3.96;69.90
55315;BME280;41619;42.816;23.226;2022-09-25T04:05:36;95863.34;;;3.91;70.00
55315;BME280;41619;42.816;23.226;2022-09-25T04:09:13;95862.69;;;3.85;70.28
55315;BME280;41619;42.816;23.226;2022-09-25T04:12:44;95864.41;;;3.81;70.42
55315;BME280;41619;42.816;23.226;2022-09-25T04:16:18;95853.56;;;3.73;70.31
55315;BME280;41619;42.816;23.226;2022-09-25T04:20:00;95869.44;;;3.65;70.23
55315;BME280;41619;42.816;23.226;2022-09-25T04:23:23;95857.63;;;3.61;70.25
55315;BME280;41619;42.816;23.226;2022-09-25T04:27:09;95861.44;;;3.60;70.34
55315;BME280;41619;42.816;23.226;2022-09-25T04:30:41;95869.56;;;3.60;70.61
55315;BME280;41619;42.816;23.226;2022-09-25T04:34:28;95866.88;;;3.60;70.29
55315;BME280;41619;42.816;23.226;2022-09-25T04:37:59;95861.16;;;3.62;70.67
55315;BME280;41619;42.816;23.226;2022-09-25T04:41:26;95862.25;;;3.61;70.29
55315;BME280;41619;42.816;23.226;2022-09-25T04:44:53;95869.25;;;3.62;70.92
55315;BME280;41619;42.816;23.226;2022-09-25T04:48:35;95873.25;;;3.64;70.68
55315;BME280;41619;42.816;23.226;2022-09-25T04:52:13;95880.44;;;3.69;70.88
55315;BME280;41619;42.816;23.226;2022-09-25T04:55:45;95872.50;;;3.73;70.83
55315;BME280;41619;42.816;23.226;2022-09-25T04:59:04;95870.78;;;3.77;70.68
55315;BME280;41619;42.816;23.226;2022-09-25T05:02:32;95869.84;;;3.81;70.88
55315;BME280;41619;42.816;23.226;2022-09-25T05:06:04;95862.06;;;3.88;70.66
55315;BME280;41619;42.816;23.226;2022-09-25T05:13:13;95856.28;;;4.21;70.31
55315;BME280;41619;42.816;23.226;2022-09-25T05:16:42;95856.81;;;4.40;70.51
55315;BME280;41619;42.816;23.226;2022-09-25T05:19:48;95854.28;;;4.61;70.11
55315;BME280;41619;42.816;23.226;2022-09-25T05:23:08;95859.28;;;4.85;69.84
55315;BME280;41619;42.816;23.226;2022-09-25T05:26:03;95858.31;;;5.07;69.51
55315;BME280;41619;42.816;23.226;2022-09-25T05:29:08;95862.25;;;5.35;69.65
55315;BME280;41619;42.816;23.226;2022-09-25T05:32:33;95859.31;;;5.66;69.36
55315;BME280;41619;42.816;23.226;2022-09-25T05:36:01;95864.53;;;5.97;68.85
55315;BME280;41619;42.816;23.226;2022-09-25T05:39:26;95858.44;;;6.38;68.77
55315;BME280;41619;42.816;23.226;2022-09-25T05:42:36;95856.47;;;6.68;68.68
55315;BME280;41619;42.816;23.226;2022-09-25T05:46:15;95867.25;;;7.07;67.69
55315;BME280;41619;42.816;23.226;2022-09-25T05:49:31;95857.19;;;7.40;67.61
55315;BME280;41619;42.816;23.226;2022-09-25T05:53:02;95855.59;;;7.72;66.91
55315;BME280;41619;42.816;23.226;2022-09-25T05:56:14;95854.88;;;8.08;66.64
55315;BME280;41619;42.816;23.226;2022-09-25T05:59:47;95852.19;;;8.45;65.88
55315;BME280;41619;42.816;23.226;2022-09-25T06:02:59;95849.75;;;8.80;66.12
55315;BME280;41619;42.816;23.226;2022-09-25T06:05:47;95852.16;;;9.22;65.80
55315;BME280;41619;42.816;23.226;2022-09-25T06:08:19;95840.97;;;9.55;65.22
55315;BME280;41619;42.816;23.226;2022-09-25T06:10:52;95851.50;;;9.84;64.67
55315;BME280;41619;42.816;23.226;2022-09-25T06:13:24;95844.22;;;10.20;64.51
55315;BME280;41619;42.816;23.226;2022-09-25T06:15:50;95850.66;;;10.59;63.83
55315;BME280;41619;42.816;23.226;2022-09-25T06:18:20;95857.97;;;10.86;63.12
55315;BME280;41619;42.816;23.226;2022-09-25T06:21:26;95863.63;;;11.13;62.61
55315;BME280;41619;42.816;23.226;2022-09-25T06:24:00;95860.09;;;11.32;62.33
55315;BME280;41619;42.816;23.226;2022-09-25T06:26:46;95850.81;;;11.56;61.89
55315;BME280;41619;42.816;23.226;2022-09-25T06:29:24;95853.53;;;11.75;61.40
55315;BME280;41619;42.816;23.226;2022-09-25T06:32:16;95862.50;;;11.91;60.79
55315;BME280;41619;42.816;23.226;2022-09-25T06:35:22;95848.38;;;12.35;60.09
55315;BME280;41619;42.816;23.226;2022-09-25T06:38:04;95843.66;;;12.85;59.81
55315;BME280;41619;42.816;23.226;2022-09-25T06:40:57;95849.91;;;13.38;58.83
55315;BME280;41619;42.816;23.226;2022-09-25T06:43:43;95862.69;;;13.87;58.46
55315;BME280;41619;42.816;23.226;2022-09-25T06:46:10;95850.59;;;14.36;58.09
55315;BME280;41619;42.816;23.226;2022-09-25T06:49:16;95846.72;;;14.92;57.69
55315;BME280;41619;42.816;23.226;2022-09-25T06:51:46;95847.75;;;15.35;56.34
55315;BME280;41619;42.816;23.226;2022-09-25T06:54:12;95849.09;;;15.59;55.84
55315;BME280;41619;42.816;23.226;2022-09-25T06:56:38;95873.56;;;15.64;54.67
55315;BME280;41619;42.816;23.226;2022-09-25T06:59:05;95860.44;;;15.47;54.57
55315;BME280;41619;42.816;23.226;2022-09-25T07:01:30;95867.84;;;15.28;54.42
55315;BME280;41619;42.816;23.226;2022-09-25T07:03:56;95871.25;;;15.07;54.92
55315;BME280;41619;42.816;23.226;2022-09-25T07:06:24;95868.00;;;14.91;54.78
55315;BME280;41619;42.816;23.226;2022-09-25T07:08:52;95869.88;;;14.83;55.01
55315;BME280;41619;42.816;23.226;2022-09-25T07:11:19;95866.72;;;14.81;54.49
55315;BME280;41619;42.816;23.226;2022-09-25T07:13:45;95872.88;;;15.19;54.24
55315;BME280;41619;42.816;23.226;2022-09-25T07:16:13;95879.88;;;15.64;52.92
55315;BME280;41619;42.816;23.226;2022-09-25T07:18:39;95878.78;;;15.94;51.94
55315;BME280;41619;42.816;23.226;2022-09-25T07:21:10;95872.91;;;16.02;51.19
55315;BME280;41619;42.816;23.226;2022-09-25T07:23:35;95870.56;;;16.08;51.08
55315;BME280;41619;42.816;23.226;2022-09-25T07:26:13;95872.91;;;17.59;49.38
55315;BME280;41619;42.816;23.226;2022-09-25T07:28:40;95868.03;;;21.00;44.82
55315;BME280;41619;42.816;23.226;2022-09-25T07:31:16;95870.44;;;23.90;40.02
55315;BME280;41619;42.816;23.226;2022-09-25T07:33:43;95858.44;;;24.19;39.37
55315;BME280;41619;42.816;23.226;2022-09-25T07:36:09;95853.72;;;24.03;39.38
55315;BME280;41619;42.816;23.226;2022-09-25T07:38:35;95839.22;;;25.91;36.97
55315;BME280;41619;42.816;23.226;2022-09-25T07:41:04;95826.94;;;28.14;34.10
55315;BME280;41619;42.816;23.226;2022-09-25T07:43:33;95834.44;;;30.06;31.18
55315;BME280;41619;42.816;23.226;2022-09-25T07:45:59;95827.81;;;31.53;33.78
55315;BME280;41619;42.816;23.226;2022-09-25T07:48:24;95821.72;;;32.52;29.31
55315;BME280;41619;42.816;23.226;2022-09-25T07:50:51;95816.47;;;33.40;27.69
55315;BME280;41619;42.816;23.226;2022-09-25T07:53:17;95807.50;;;34.29;26.09
55315;BME280;41619;42.816;23.226;2022-09-25T07:55:45;95808.63;;;34.87;28.05
55315;BME280;41619;42.816;23.226;2022-09-25T07:58:11;95803.72;;;33.24;26.62
55315;BME280;41619;42.816;23.226;2022-09-25T08:00:37;95792.28;;;31.92;26.97
55315;BME280;41619;42.816;23.226;2022-09-25T08:03:05;95793.78;;;32.14;26.64
55315;BME280;41619;42.816;23.226;2022-09-25T08:05:32;95784.00;;;32.72;25.68
55315;BME280;41619;42.816;23.226;2022-09-25T08:07:58;95792.47;;;33.89;24.08
55315;BME280;41619;42.816;23.226;2022-09-25T08:10:23;95788.72;;;34.87;23.14
55315;BME280;41619;42.816;23.226;2022-09-25T08:12:49;95780.09;;;35.27;22.26
55315;BME280;41619;42.816;23.226;2022-09-25T08:15:14;95773.81;;;35.56;21.14
55315;BME280;41619;42.816;23.226;2022-09-25T08:17:41;95771.72;;;35.62;20.40
55315;BME280;41619;42.816;23.226;2022-09-25T08:20:11;95773.53;;;35.60;20.83
55315;BME280;41619;42.816;23.226;2022-09-25T08:22:37;95766.31;;;35.59;20.07
55315;BME280;41619;42.816;23.226;2022-09-25T08:25:02;95755.38;;;35.68;20.08
55315;BME280;41619;42.816;23.226;2022-09-25T08:27:28;95746.13;;;36.09;19.98
55315;BME280;41619;42.816;23.226;2022-09-25T08:29:54;95750.06;;;36.72;19.45
55315;BME280;41619;42.816;23.226;2022-09-25T08:32:19;95750.94;;;37.15;18.50
55315;BME280;41619;42.816;23.226;2022-09-25T08:34:44;95747.19;;;37.75;18.17
55315;BME280;41619;42.816;23.226;2022-09-25T08:37:10;95745.69;;;38.06;17.39
55315;BME280;41619;42.816;23.226;2022-09-25T08:39:35;95741.97;;;37.92;17.27
55315;BME280;41619;42.816;23.226;2022-09-25T08:42:01;95741.78;;;37.47;17.03
55315;BME280;41619;42.816;23.226;2022-09-25T08:52:30;95749.69;;;38.99;16.29
55315;BME280;41619;42.816;23.226;2022-09-25T08:54:57;95753.25;;;39.45;15.72
55315;BME280;41619;42.816;23.226;2022-09-25T08:57:35;95735.09;;;39.16;15.19
55315;BME280;41619;42.816;23.226;2022-09-25T09:00:15;95733.50;;;38.56;15.01
55315;BME280;41619;42.816;23.226;2022-09-25T09:02:46;95729.53;;;38.59;15.03
55315;BME280;41619;42.816;23.226;2022-09-25T09:05:21;95727.84;;;38.69;15.04
55315;BME280;41619;42.816;23.226;2022-09-25T09:08:01;95719.41;;;38.90;15.03
55315;BME280;41619;42.816;23.226;2022-09-25T09:13:49;95713.88;;;38.34;14.57
55315;BME280;41619;42.816;23.226;2022-09-25T09:18:51;95694.94;;;37.12;15.18
55315;BME280;41619;42.816;23.226;2022-09-25T09:21:38;95703.06;;;36.84;15.59
55315;BME280;41619;42.816;23.226;2022-09-25T09:32:19;95686.09;;;37.16;15.57
55315;BME280;41619;42.816;23.226;2022-09-25T09:40:45;95682.03;;;30.21;18.90
55315;BME280;41619;42.816;23.226;2022-09-25T09:42:54;95681.16;;;28.69;19.88
55315;BME280;41619;42.816;23.226;2022-09-25T09:53:05;95678.56;;;25.60;22.41
55315;BME280;41619;42.816;23.226;2022-09-25T09:55:40;95674.94;;;26.03;22.99
55315;BME280;41619;42.816;23.226;2022-09-25T09:58:56;95668.53;;;27.89;22.06
55315;BME280;41619;42.816;23.226;2022-09-25T10:01:02;95661.94;;;29.45;21.15
55315;BME280;41619;42.816;23.226;2022-09-25T10:03:32;95655.31;;;31.32;20.04
55315;BME280;41619;42.816;23.226;2022-09-25T10:06:03;95646.63;;;33.05;19.15
55315;BME280;41619;42.816;23.226;2022-09-25T10:08:29;95644.31;;;34.47;17.71
55315;BME280;41619;42.816;23.226;2022-09-25T10:10:55;95655.84;;;34.88;17.21
55315;BME280;41619;42.816;23.226;2022-09-25T10:13:29;95652.03;;;34.18;17.61
55315;BME280;41619;42.816;23.226;2022-09-25T10:16:00;95649.88;;;34.91;17.53
55315;BME280;41619;42.816;23.226;2022-09-25T10:18:33;95648.91;;;35.88;16.71
55315;BME280;41619;42.816;23.226;2022-09-25T10:21:13;95639.94;;;36.68;16.66
55315;BME280;41619;42.816;23.226;2022-09-25T10:23:46;95642.19;;;37.19;16.33
55315;BME280;41619;42.816;23.226;2022-09-25T10:28:50;95628.22;;;37.77;15.78
55315;BME280;41619;42.816;23.226;2022-09-25T10:31:17;95621.19;;;37.59;15.69
55315;BME280;41619;42.816;23.226;2022-09-25T10:33:57;95614.72;;;37.40;15.53
55315;BME280;41619;42.816;23.226;2022-09-25T10:36:51;95608.25;;;37.40;15.42
55315;BME280;41619;42.816;23.226;2022-09-25T10:39:32;95610.72;;;36.87;15.56
55315;BME280;41619;42.816;23.226;2022-09-25T10:41:59;95602.75;;;35.60;15.54
55315;BME280;41619;42.816;23.226;2022-09-25T10:44:31;95601.97;;;34.15;15.63
55315;BME280;41619;42.816;23.226;2022-09-25T10:55:21;95597.44;;;28.70;19.81
55315;BME280;41619;42.816;23.226;2022-09-25T10:57:54;95598.47;;;28.00;20.57
55315;BME280;41619;42.816;23.226;2022-09-25T11:00:23;95584.13;;;27.47;20.95
55315;BME280;41619;42.816;23.226;2022-09-25T11:02:52;95582.31;;;27.35;21.66
55315;BME280;41619;42.816;23.226;2022-09-25T11:05:20;95571.72;;;27.21;22.50
55315;BME280;41619;42.816;23.226;2022-09-25T11:07:52;95574.69;;;27.17;22.92
55315;BME280;41619;42.816;23.226;2022-09-25T11:10:30;95575.94;;;27.07;23.36
55315;BME280;41619;42.816;23.226;2022-09-25T11:13:07;95566.75;;;26.79;23.58
55315;BME280;41619;42.816;23.226;2022-09-25T11:15:33;95574.38;;;26.51;23.70
55315;BME280;41619;42.816;23.226;2022-09-25T11:18:03;95556.47;;;26.48;23.18
55315;BME280;41619;42.816;23.226;2022-09-25T11:20:30;95556.44;;;26.39;22.68
55315;BME280;41619;42.816;23.226;2022-09-25T11:23:33;95552.66;;;26.33;23.02
55315;BME280;41619;42.816;23.226;2022-09-25T11:28:45;95552.75;;;26.02;23.51
55315;BME280;41619;42.816;23.226;2022-09-25T11:31:19;95550.13;;;25.99;24.04
55315;BME280;41619;42.816;23.226;2022-09-25T11:33:56;95551.50;;;25.85;23.74
55315;BME280;41619;42.816;23.226;2022-09-25T11:36:30;95539.81;;;25.86;24.37
55315;BME280;41619;42.816;23.226;2022-09-25T11:39:02;95542.47;;;25.99;23.73
55315;BME280;41619;42.816;23.226;2022-09-25T11:42:04;95530.81;;;26.10;23.55
55315;BME280;41619;42.816;23.226;2022-09-25T11:44:39;95545.94;;;26.12;22.71
55315;BME280;41619;42.816;23.226;2022-09-25T11:47:11;95523.31;;;25.98;22.60
55315;BME280;41619;42.816;23.226;2022-09-25T11:49:40;95541.84;;;25.95;22.24
55315;BME280;41619;42.816;23.226;2022-09-25T12:00:54;95513.47;;;25.84;23.18
55315;BME280;41619;42.816;23.226;2022-09-25T12:05:49;95510.81;;;25.80;23.18
55315;BME280;41619;42.816;23.226;2022-09-25T12:13:59;95502.72;;;25.82;23.37
55315;BME280;41619;42.816;23.226;2022-09-25T12:16:47;95502.25;;;25.75;23.39
55315;BME280;41619;42.816;23.226;2022-09-25T12:22:38;95494.00;;;25.71;23.41
55315;BME280;41619;42.816;23.226;2022-09-25T12:35:39;95489.09;;;25.53;23.85
55315;BME280;41619;42.816;23.226;2022-09-25T12:41:05;95475.16;;;25.72;23.66
55315;BME280;41619;42.816;23.226;2022-09-25T12:43:40;95468.00;;;25.80;22.90
55315;BME280;41619;42.816;23.226;2022-09-25T12:46:19;95466.59;;;25.84;22.46
55315;BME280;41619;42.816;23.226;2022-09-25T12:48:50;95458.06;;;25.88;22.38
55315;BME280;41619;42.816;23.226;2022-09-25T12:51:21;95450.72;;;25.90;22.47
55315;BME280;41619;42.816;23.226;2022-09-25T12:54:05;95445.59;;;25.98;22.55
55315;BME280;41619;42.816;23.226;2022-09-25T12:56:51;95452.28;;;26.01;22.71
55315;BME280;41619;42.816;23.226;2022-09-25T12:59:36;95451.97;;;25.89;22.38
55315;BME280;41619;42.816;23.226;2022-09-25T13:05:07;95432.56;;;25.64;23.07
55315;BME280;41619;42.816;23.226;2022-09-25T13:10:37;95427.59;;;25.50;23.10
55315;BME280;41619;42.816;23.226;2022-09-25T13:13:09;95422.88;;;25.47;23.19
55315;BME280;41619;42.816;23.226;2022-09-25T13:15:37;95420.25;;;25.43;22.95
55315;BME280;41619;42.816;23.226;2022-09-25T13:18:06;95411.69;;;25.38;22.63
55315;BME280;41619;42.816;23.226;2022-09-25T13:23:07;95406.47;;;25.18;22.65
55315;BME280;41619;42.816;23.226;2022-09-25T13:25:49;95410.94;;;25.06;22.55
55315;BME280;41619;42.816;23.226;2022-09-25T13:28:29;95408.69;;;24.92;22.89
55315;BME280;41619;42.816;23.226;2022-09-25T13:34:03;95404.34;;;24.60;22.01
55315;BME280;41619;42.816;23.226;2022-09-25T13:38:50;95392.88;;;24.36;22.66
55315;BME280;41619;42.816;23.226;2022-09-25T13:41:34;95387.94;;;24.27;22.73
55315;BME280;41619;42.816;23.226;2022-09-25T13:49:53;95388.34;;;23.95;23.01
55315;BME280;41619;42.816;23.226;2022-09-25T14:00:20;95384.44;;;23.58;23.28
55315;BME280;41619;42.816;23.226;2022-09-25T14:02:46;95377.06;;;23.51;23.50
55315;BME280;41619;42.816;23.226;2022-09-25T14:05:19;95381.78;;;23.41;23.88
55315;BME280;41619;42.816;23.226;2022-09-25T14:07:50;95384.81;;;23.34;24.00
55315;BME280;41619;42.816;23.226;2022-09-25T14:10:20;95375.91;;;23.26;24.05
55315;BME280;41619;42.816;23.226;2022-09-25T14:12:47;95368.00;;;23.25;24.06
55315;BME280;41619;42.816;23.226;2022-09-25T14:15:33;95371.78;;;23.18;24.01
55315;BME280;41619;42.816;23.226;2022-09-25T14:18:05;95370.78;;;23.12;24.24
55315;BME280;41619;42.816;23.226;2022-09-25T14:20:44;95372.25;;;23.04;24.69
55315;BME280;41619;42.816;23.226;2022-09-25T14:23:21;95373.84;;;22.92;24.45
55315;BME280;41619;42.816;23.226;2022-09-25T14:25:56;95372.22;;;22.79;24.59
55315;BME280;41619;42.816;23.226;2022-09-25T14:30:59;95376.81;;;22.60;24.75
55315;BME280;41619;42.816;23.226;2022-09-25T14:36:34;95375.22;;;22.46;25.34
55315;BME280;41619;42.816;23.226;2022-09-25T14:42:13;95375.09;;;22.50;24.26
55315;BME280;41619;42.816;23.226;2022-09-25T14:47:32;95370.13;;;22.57;23.81
55315;BME280;41619;42.816;23.226;2022-09-25T14:49:59;95372.56;;;22.55;23.73
55315;BME280;41619;42.816;23.226;2022-09-25T14:52:29;95372.69;;;22.52;23.50
55315;BME280;41619;42.816;23.226;2022-09-25T14:54:56;95366.06;;;22.46;23.61
55315;BME280;41619;42.816;23.226;2022-09-25T14:57:31;95366.31;;;22.39;23.84
55315;BME280;41619;42.816;23.226;2022-09-25T15:00:02;95372.00;;;22.35;23.78
55315;BME280;41619;42.816;23.226;2022-09-25T15:05:14;95374.19;;;22.27;25.28
55315;BME280;41619;42.816;23.226;2022-09-25T15:07:41;95372.84;;;22.19;26.71
55315;BME280;41619;42.816;23.226;2022-09-25T15:10:39;95378.38;;;22.06;28.02
55315;BME280;41619;42.816;23.226;2022-09-25T15:15:35;95372.84;;;21.90;28.93
55315;BME280;41619;42.816;23.226;2022-09-25T15:18:01;95369.94;;;21.81;29.14
55315;BME280;41619;42.816;23.226;2022-09-25T15:20:30;95369.00;;;21.71;29.41
55315;BME280;41619;42.816;23.226;2022-09-25T15:22:59;95367.28;;;21.61;29.85
55315;BME280;41619;42.816;23.226;2022-09-25T15:25:30;95366.78;;;21.50;29.88
55315;BME280;41619;42.816;23.226;2022-09-25T15:27:56;95368.63;;;21.40;30.25
55315;BME280;41619;42.816;23.226;2022-09-25T15:30:25;95359.69;;;21.33;30.56
55315;BME280;41619;42.816;23.226;2022-09-25T15:32:52;95362.66;;;21.26;30.78
55315;BME280;41619;42.816;23.226;2022-09-25T15:35:24;95373.13;;;21.18;31.26
55315;BME280;41619;42.816;23.226;2022-09-25T15:38:01;95369.41;;;21.08;31.63
55315;BME280;41619;42.816;23.226;2022-09-25T15:40:28;95372.44;;;20.98;31.54
55315;BME280;41619;42.816;23.226;2022-09-25T15:42:54;95377.06;;;20.88;31.96
55315;BME280;41619;42.816;23.226;2022-09-25T15:45:41;95380.53;;;20.76;32.52
55315;BME280;41619;42.816;23.226;2022-09-25T15:50:51;95382.69;;;20.52;33.19
55315;BME280;41619;42.816;23.226;2022-09-25T15:53:27;95389.63;;;20.40;33.91
55315;BME280;41619;42.816;23.226;2022-09-25T15:56:56;95388.81;;;20.23;34.32
55315;BME280;41619;42.816;23.226;2022-09-25T15:59:13;95384.78;;;20.08;34.54
55315;BME280;41619;42.816;23.226;2022-09-25T16:01:41;95379.09;;;19.95;34.61
55315;BME280;41619;42.816;23.226;2022-09-25T16:04:25;95379.00;;;19.79;35.18
55315;BME280;41619;42.816;23.226;2022-09-25T16:09:53;95383.22;;;19.44;36.27
55315;BME280;41619;42.816;23.226;2022-09-25T16:14:50;95387.38;;;19.09;37.39
55315;BME280;41619;42.816;23.226;2022-09-25T16:17:39;95390.50;;;18.88;38.37
55315;BME280;41619;42.816;23.226;2022-09-25T16:22:55;95407.28;;;18.50;39.04
55315;BME280;41619;42.816;23.226;2022-09-25T16:25:30;95407.94;;;18.31;39.57
55315;BME280;41619;42.816;23.226;2022-09-25T16:28:19;95414.19;;;18.08;39.95
55315;BME280;41619;42.816;23.226;2022-09-25T16:30:47;95413.56;;;17.93;39.85
55315;BME280;41619;42.816;23.226;2022-09-25T16:33:28;95418.00;;;17.83;39.96
55315;BME280;41619;42.816;23.226;2022-09-25T16:36:01;95411.41;;;17.74;40.13
55315;BME280;41619;42.816;23.226;2022-09-25T16:38:33;95417.00;;;17.67;40.48
55315;BME280;41619;42.816;23.226;2022-09-25T16:41:18;95413.94;;;17.58;40.54
55315;BME280;41619;42.816;23.226;2022-09-25T16:43:45;95412.44;;;17.49;40.34
55315;BME280;41619;42.816;23.226;2022-09-25T16:46:14;95414.09;;;17.40;40.69
55315;BME280;41619;42.816;23.226;2022-09-25T16:48:40;95414.19;;;17.29;41.00
55315;BME280;41619;42.816;23.226;2022-09-25T16:51:16;95421.03;;;17.17;41.44
55315;BME280;41619;42.816;23.226;2022-09-25T16:53:44;95422.72;;;17.04;41.42
55315;BME280;41619;42.816;23.226;2022-09-25T16:56:19;95424.41;;;16.91;41.37
55315;BME280;41619;42.816;23.226;2022-09-25T16:58:45;95425.28;;;16.81;41.38
55315;BME280;41619;42.816;23.226;2022-09-25T17:01:11;95421.38;;;16.71;41.88
55315;BME280;41619;42.816;23.226;2022-09-25T17:03:36;95422.22;;;16.61;42.35
55315;BME280;41619;42.816;23.226;2022-09-25T17:06:14;95429.00;;;16.49;42.58
55315;BME280;41619;42.816;23.226;2022-09-25T17:08:39;95425.13;;;16.36;42.89
55315;BME280;41619;42.816;23.226;2022-09-25T17:11:04;95427.94;;;16.25;43.05
55315;BME280;41619;42.816;23.226;2022-09-25T17:13:30;95426.41;;;16.14;43.18
55315;BME280;41619;42.816;23.226;2022-09-25T17:15:55;95436.75;;;16.02;43.87
55315;BME280;41619;42.816;23.226;2022-09-25T17:18:21;95437.16;;;15.90;44.19
55315;BME280;41619;42.816;23.226;2022-09-25T17:20:52;95439.97;;;15.80;44.24
55315;BME280;41619;42.816;23.226;2022-09-25T17:23:22;95444.72;;;15.68;44.57
55315;BME280;41619;42.816;23.226;2022-09-25T17:26:01;95440.38;;;15.57;45.11
55315;BME280;41619;42.816;23.226;2022-09-25T17:28:27;95445.56;;;15.44;45.22
55315;BME280;41619;42.816;23.226;2022-09-25T17:30:53;95443.97;;;15.32;45.37
55315;BME280;41619;42.816;23.226;2022-09-25T17:33:21;95442.00;;;15.22;46.10
55315;BME280;41619;42.816;23.226;2022-09-25T17:36:04;95447.94;;;15.10;46.37
55315;BME280;41619;42.816;23.226;2022-09-25T17:38:30;95468.41;;;14.98;46.25
55315;BME280;41619;42.816;23.226;2022-09-25T17:40:57;95469.97;;;14.85;46.22
55315;BME280;41619;42.816;23.226;2022-09-25T17:43:24;95475.06;;;14.69;46.25
55315;BME280;41619;42.816;23.226;2022-09-25T17:45:57;95468.34;;;14.59;46.41
55315;BME280;41619;42.816;23.226;2022-09-25T17:48:25;95482.09;;;14.48;46.86
55315;BME280;41619;42.816;23.226;2022-09-25T17:51:09;95476.16;;;14.39;47.32
55315;BME280;41619;42.816;23.226;2022-09-25T17:53:36;95481.22;;;14.27;47.08